首页
METAR-TAF:

METAR-TAF

机场 :

Buochs, 瑞士

纬度: 46-58-28N, 经度: 8-23-49E, 海拔: 449米

当前天气观测

该预报发布于31分钟前的11:50 UTC
风速2节,风向多变
温度 2°C
湿度 100%
气压 1020 hPa
能見度: 0450

METAR: LSZC 261150Z AUTO VRB02KT 0450 FG VV002 02/02 Q1020

时间: 13:21 (12:21 UTC)


TAF: 丢失

超过4000个机场的气象观测和天气预报(METAR&TAF报告)。

可查询的气象台以黄色和红色小点在地图上表示。

将鼠标移到小点上方,可查看气象台名称。

然后点击查看天气观测和预报。

如需切换地图:点击带黑十字的绿色按钮放大地图;点击带横线的绿色按钮缩小地图;或者点击绿色箭头查看邻近地区的地图。


METAR-TAF: